Cozumel International Airport
MMCZ : now visible

Airfield :











YOU CAN JOIN US ON...

 
LOGIN :

Register | Disclaimer

   EN    FR    IT 

 









Legend :    VFR   Marginal VFR   IFR   Intensive IFR   Very Intensive IFR
Visi :
Ceiling :
>= 8 km
>= 3000ft
5 to 8 km
1000 to 3000 ft
1500m to 5 km
500 to 1000 ft
800 to 1500m
200 to 500 ft
< 800m
< 200 ft
Symbols :   Thunderstorms  Fog  Heavy snow  Heavy precipitations  Wind > 20 kt






- Airport Elevation : 15 ft
- IATA code : CZM


MMCZ - Cozumel International

CURRENT METAR :
  • 062140Z 17009KT 8SM SCT015 31/22 A2994 RMK 8/100

EXPIRED METARs :
  • 062046Z 15012KT 8SM SCT015 30/23 A2994 RMK SLP145 57015 920 8/100
  • 061946Z 17010KT 8SM SCT015 30/22 A2995 RMK 8/100

TAF TAF MMCZ
Valid from the 06 at 18:00 until the 08 at 00:00 UTC


061656Z 0618/0724 14010KT P6SM SCT015 TX32/0618Z TN21/0710Z
TEMPO 0618/0622 BKN015
FM070300 10008KT P6SM SCT015
BECMG 0708/0709 BKN015
FM071600 12010KT P6SM SCT015



MET'MAP, your aeronautical weather chart ! - Copyright ORBIFLY December 2007 - Disclaimer

ORBIFLY MET'MAP TEAM :

Programming & Development : Alexandra Zaïnal
Concept & original design : Baudouin d'Aumeries
Assistance for programming : Marc-Olivier Méhu
Technical & hardware support : Manuel Goepfert

Contact : metmap@orbifly.com




SOURCES & CREDITS :

   NOAA       Earth
Advisory